Time;durP1;ratioP1;P1;durP2;ratioP2;P2;SDS_P1;SDS_P2;PMS_P1;PMS_P2;Temp;Humidity;BMP_temperature;BMP_pressure;BME280_temperature;BME280_humidity;BME280_pressure;Samples;Min_cycle;Max_cycle;Signal;HPM_P1;HPM_P2
2021/12/13 00:00:57;;;;;;;30.75;22.77;;;11.10;99.90;;;;;;5092473;28;20078;-61
2021/12/13 00:03:29;;;;;;;25.92;21.33;;;11.10;99.90;;;;;;5092708;28;20438;-61
2021/12/13 00:06:09;;;;;;;25.63;20.60;;;11.10;99.90;;;;;;5077802;28;20028;-60
2021/12/13 00:08:40;;;;;;;32.13;23.92;;;11.10;99.90;;;;;;5096561;28;20016;-61
2021/12/13 00:11:11;;;;;;;29.70;22.48;;;11.10;99.90;;;;;;5096429;28;20012;-61
2021/12/13 00:14:01;;;;;;;31.40;24.33;;;11.10;99.90;;;;;;5096526;28;20036;-61
2021/12/13 00:16:40;;;;;;;32.92;24.98;;;11.10;99.90;;;;;;5096451;28;20043;-61
2021/12/13 00:19:23;;;;;;;33.25;26.88;;;11.10;99.90;;;;;;5096342;28;20103;-62
2021/12/13 00:21:59;;;;;;;38.60;26.38;;;11.10;99.90;;;;;;5096268;28;20085;-61
2021/12/13 00:24:39;;;;;;;30.48;25.83;;;11.10;99.90;;;;;;5096203;28;20024;-61
2021/12/13 00:27:24;;;;;;;38.75;27.48;;;11.10;99.90;;;;;;5096367;28;20099;-61
2021/12/13 00:29:59;;;;;;;34.53;26.13;;;11.10;99.90;;;;;;5077947;28;20077;-61
2021/12/13 00:32:56;;;;;;;33.85;28.35;;;11.10;99.90;;;;;;5096260;28;20026;-60
2021/12/13 00:35:26;;;;;;;32.33;27.58;;;11.10;99.90;;;;;;5096102;28;20031;-61
2021/12/13 00:37:58;;;;;;;37.92;29.00;;;11.10;99.90;;;;;;5096023;28;20059;-61
2021/12/13 00:40:32;;;;;;;40.65;30.08;;;11.00;99.90;;;;;;5095831;28;20099;-61
2021/12/13 00:43:14;;;;;;;36.47;28.95;;;11.10;99.90;;;;;;5096068;28;20107;-61
2021/12/13 00:45:53;;;;;;;36.72;29.80;;;11.10;99.90;;;;;;5095934;28;20024;-61
2021/12/13 00:48:21;;;;;;;38.22;29.35;;;11.00;99.90;;;;;;5096000;28;20061;-61
2021/12/13 00:50:59;;;;;;;35.42;27.52;;;11.00;99.90;;;;;;5095649;28;20587;-61
2021/12/13 00:53:32;;;;;;;37.97;30.13;;;11.00;99.90;;;;;;5095784;28;20030;-61
2021/12/13 00:55:59;;;;;;;37.05;30.35;;;11.00;99.90;;;;;;5095593;28;20024;-61
2021/12/13 00:58:24;;;;;;;33.85;28.00;;;11.00;99.90;;;;;;5095723;28;20024;-61
2021/12/13 01:00:56;;;;;;;35.33;29.17;;;11.00;99.90;;;;;;5095489;28;20016;-61
2021/12/13 01:03:37;;;;;;;35.28;29.48;;;11.00;99.90;;;;;;5095815;28;20028;-60
2021/12/13 01:06:40;;;;;;;37.65;29.30;;;11.10;99.90;;;;;;5095588;28;20031;-61
2021/12/13 01:09:53;;;;;;;34.60;28.20;;;11.10;99.90;;;;;;5075201;28;20021;-60
2021/12/13 01:12:21;;;;;;;40.53;30.88;;;11.00;99.90;;;;;;5075113;28;20024;-60
2021/12/13 01:15:01;;;;;;;38.83;31.23;;;11.00;99.90;;;;;;5074976;28;20045;-61
2021/12/13 01:20:18;;;;;;;43.70;33.28;;;11.00;99.90;;;;;;5075284;28;20465;-61
2021/12/13 01:22:58;;;;;;;43.13;33.28;;;11.00;99.90;;;;;;5075282;28;20111;-61
2021/12/13 01:25:59;;;;;;;46.95;32.10;;;10.90;99.90;;;;;;5074996;28;20491;-61
2021/12/13 01:28:29;;;;;;;38.13;30.58;;;10.90;99.90;;;;;;5056817;28;20056;-61
2021/12/13 01:31:07;;;;;;;39.28;30.08;;;10.90;99.90;;;;;;5074753;28;20074;-61
2021/12/13 01:33:33;;;;;;;48.53;33.30;;;10.90;99.90;;;;;;5074794;28;20025;-61
2021/12/13 01:36:04;;;;;;;39.53;32.38;;;10.90;99.90;;;;;;5074789;28;20052;-61
2021/12/13 01:38:36;;;;;;;47.28;32.83;;;10.90;99.90;;;;;;5074730;28;20021;-61
2021/12/13 01:41:08;;;;;;;40.00;31.42;;;10.90;99.90;;;;;;5056701;28;20017;-61
2021/12/13 01:43:36;;;;;;;41.25;32.25;;;10.90;99.90;;;;;;5074861;28;20027;-61
2021/12/13 01:46:02;;;;;;;40.22;32.15;;;10.90;99.90;;;;;;5056598;28;20025;-61
2021/12/13 01:48:31;;;;;;;38.83;30.50;;;10.80;99.90;;;;;;5074498;28;20017;-60
2021/12/13 01:51:11;;;;;;;39.20;30.30;;;10.90;99.90;;;;;;5073108;28;20046;-61
2021/12/13 01:53:47;;;;;;;;;;;10.80;99.90;;;;;;5074693;28;20421;-61
2021/12/13 01:56:57;;;;;;;37.45;29.65;;;10.80;99.90;;;;;;5074350;28;20375;-61
2021/12/13 02:02:17;;;;;;;34.38;27.17;;;10.70;99.90;;;;;;5074258;28;20016;-61
2021/12/13 02:04:54;;;;;;;34.30;26.27;;;10.70;99.90;;;;;;5074054;28;20511;-61
2021/12/13 02:07:24;;;;;;;33.95;26.77;;;10.70;99.90;;;;;;5083225;28;20077;-60
2021/12/13 02:09:50;;;;;;;34.85;27.30;;;10.70;99.90;;;;;;5094296;28;20023;-61
2021/12/13 02:12:18;;;;;;;31.88;25.20;;;10.70;99.90;;;;;;5075943;28;20028;-61
2021/12/13 02:17:44;;;;;;;31.55;24.52;;;10.80;99.90;;;;;;5094359;28;20059;-61
2021/12/13 02:20:33;;;;;;;28.35;23.27;;;10.80;99.90;;;;;;5094014;28;20437;-61
2021/12/13 02:23:00;;;;;;;31.37;23.47;;;10.70;99.90;;;;;;5094107;28;20027;-61
2021/12/13 02:25:37;;;;;;;25.48;22.50;;;10.70;99.90;;;;;;5094041;28;20499;-61
2021/12/13 02:28:16;;;;;;;29.05;22.58;;;10.70;99.90;;;;;;5093873;28;20050;-61
2021/12/13 02:30:49;;;;;;;26.95;21.75;;;10.70;99.90;;;;;;5093211;28;20028;-61
2021/12/13 02:33:19;;;;;;;28.13;21.40;;;10.60;99.90;;;;;;5093151;28;20027;-61
2021/12/13 02:35:58;;;;;;;24.08;19.42;;;10.60;99.90;;;;;;5093010;28;20046;-61
2021/12/13 02:38:25;;;;;;;20.43;17.97;;;10.60;99.90;;;;;;5075439;28;20032;-62
2021/12/13 02:40:52;;;;;;;20.05;17.40;;;10.60;99.90;;;;;;5093942;28;20069;-61
2021/12/13 02:43:21;;;;;;;21.73;18.42;;;10.60;99.90;;;;;;5075298;28;20032;-61
2021/12/13 02:45:51;;;;;;;25.33;19.02;;;10.60;99.90;;;;;;5093489;28;20043;-61
2021/12/13 02:48:24;;;;;;;24.02;18.95;;;10.60;99.90;;;;;;5093525;28;20020;-61
2021/12/13 02:51:16;;;;;;;24.42;18.60;;;10.50;99.90;;;;;;5093470;28;20034;-61
2021/12/13 02:53:47;;;;;;;23.15;18.23;;;10.50;99.90;;;;;;5082254;28;20369;-61
2021/12/13 02:56:16;;;;;;;23.17;18.55;;;10.50;99.90;;;;;;5093495;28;20475;-60
2021/12/13 02:58:43;;;;;;;21.73;18.15;;;10.50;99.90;;;;;;5090777;28;20490;-61
2021/12/13 03:01:13;;;;;;;26.35;18.55;;;10.50;99.90;;;;;;5072971;28;20029;-61
2021/12/13 03:03:43;;;;;;;23.55;18.17;;;10.50;99.90;;;;;;5074037;28;20477;-61
2021/12/13 03:06:13;;;;;;;24.05;18.17;;;10.50;99.90;;;;;;5075120;28;20055;-60
2021/12/13 03:08:46;;;;;;;21.27;17.45;;;10.50;99.90;;;;;;5092880;28;20684;-60
2021/12/13 03:11:28;;;;;;;22.80;17.98;;;10.50;99.90;;;;;;5093183;28;20024;-61
2021/12/13 03:13:57;;;;;;;24.15;18.60;;;10.50;99.90;;;;;;5092838;28;20545;-60
2021/12/13 03:16:28;;;;;;;21.35;17.10;;;10.50;99.90;;;;;;5092748;28;20443;-61
2021/12/13 03:19:08;;;;;;;23.30;18.15;;;10.40;99.90;;;;;;5092917;28;20032;-60
2021/12/13 03:22:18;;;;;;;22.38;18.33;;;10.50;99.90;;;;;;5092917;28;20391;-61
2021/12/13 03:25:07;;;;;;;24.27;19.10;;;10.50;99.90;;;;;;5092889;28;20231;-61
2021/12/13 03:27:32;;;;;;;25.73;19.53;;;10.40;99.90;;;;;;5092910;28;20024;-62
2021/12/13 03:30:21;;;;;;;23.73;17.55;;;10.40;99.90;;;;;;5092877;28;20031;-61
2021/12/13 03:33:06;;;;;;;25.35;19.13;;;10.40;99.90;;;;;;5092868;28;20028;-61
2021/12/13 03:35:41;;;;;;;25.30;18.60;;;10.40;99.90;;;;;;5092458;28;20032;-61
2021/12/13 03:38:13;;;;;;;25.38;18.58;;;10.30;99.90;;;;;;5074906;28;20035;-61
2021/12/13 03:40:39;;;;;;;26.58;18.63;;;10.30;99.90;;;;;;5092100;28;20054;-61
2021/12/13 03:43:10;;;;;;;26.50;19.52;;;10.30;99.90;;;;;;5074582;28;20472;-61
2021/12/13 03:45:40;;;;;;;22.65;18.25;;;10.30;99.90;;;;;;5074442;28;20024;-61
2021/12/13 03:48:09;;;;;;;26.33;18.42;;;10.30;99.90;;;;;;5092545;28;20035;-60
2021/12/13 03:50:45;;;;;;;26.30;18.90;;;10.30;99.90;;;;;;5074551;28;20024;-61
2021/12/13 03:53:15;;;;;;;28.17;20.65;;;10.30;99.90;;;;;;5092718;28;20024;-61
2021/12/13 03:55:45;;;;;;;30.52;20.42;;;10.30;99.90;;;;;;5074969;28;20114;-61
2021/12/13 03:58:13;;;;;;;32.33;21.17;;;10.30;99.90;;;;;;5092861;28;20107;-61
2021/12/13 04:00:45;;;;;;;33.42;21.58;;;10.30;99.90;;;;;;5092244;28;20103;-61
2021/12/13 04:03:15;;;;;;;30.92;20.27;;;10.20;99.90;;;;;;5092623;28;20028;-61
2021/12/13 04:05:41;;;;;;;31.45;21.75;;;10.30;99.90;;;;;;5074425;28;20035;-61
2021/12/13 04:08:10;;;;;;;37.65;21.95;;;10.20;99.90;;;;;;5092460;28;20036;-61
2021/12/13 04:10:44;;;;;;;31.05;21.08;;;10.20;99.90;;;;;;5092430;28;20078;-61
2021/12/13 04:13:15;;;;;;;29.80;20.95;;;10.20;99.90;;;;;;5092473;28;20081;-60
2021/12/13 04:16:30;;;;;;;33.78;23.50;;;10.20;99.90;;;;;;5091998;28;20499;-61
2021/12/13 04:19:11;;;;;;;34.00;21.92;;;10.20;99.90;;;;;;5010287;28;20033;-61
2021/12/13 04:21:58;;;;;;;34.78;21.55;;;10.20;99.90;;;;;;5010298;28;20030;-61
2021/12/13 04:24:32;;;;;;;34.85;22.98;;;10.20;99.90;;;;;;5075273;28;20074;-61
2021/12/13 04:27:09;;;;;;;32.38;21.58;;;10.20;99.90;;;;;;5074322;28;20035;-61
2021/12/13 04:29:39;;;;;;;34.45;23.02;;;10.20;99.90;;;;;;5092138;28;20031;-60
2021/12/13 04:32:28;;;;;;;29.23;21.55;;;10.20;99.90;;;;;;5092397;28;20074;-61
2021/12/13 04:34:57;;;;;;;36.22;24.95;;;10.20;99.90;;;;;;5092191;28;20035;-61
2021/12/13 04:37:26;;;;;;;39.67;24.60;;;10.10;99.90;;;;;;5074228;28;20111;-61
2021/12/13 04:40:06;;;;;;;33.75;24.58;;;10.10;99.90;;;;;;5091960;28;20028;-61
2021/12/13 04:42:32;;;;;;;35.97;24.20;;;10.20;99.90;;;;;;5091989;28;20480;-62
2021/12/13 04:45:04;;;;;;;31.13;22.77;;;10.20;99.90;;;;;;5092106;28;20028;-61
2021/12/13 04:47:33;;;;;;;31.30;22.15;;;10.10;99.90;;;;;;5092147;28;20151;-61
2021/12/13 04:50:21;;;;;;;40.38;25.13;;;10.20;99.90;;;;;;5092397;28;20035;-61
2021/12/13 04:52:48;;;;;;;35.60;24.50;;;10.10;99.90;;;;;;5095730;28;20531;-61
2021/12/13 04:55:22;;;;;;;33.40;23.70;;;10.10;99.90;;;;;;5095592;28;20034;-61
2021/12/13 04:57:49;;;;;;;35.28;22.98;;;10.10;99.90;;;;;;5095683;28;20034;-61
2021/12/13 05:00:18;;;;;;;34.10;23.33;;;10.00;99.90;;;;;;5095562;28;20503;-61
2021/12/13 05:02:47;;;;;;;37.63;24.27;;;10.00;99.90;;;;;;5095439;28;20028;-61
2021/12/13 05:05:15;;;;;;;37.77;23.63;;;10.00;99.90;;;;;;5095539;28;20031;-61
2021/12/13 05:07:44;;;;;;;35.15;23.33;;;10.00;99.90;;;;;;5095548;28;20035;-61
2021/12/13 05:10:12;;;;;;;36.17;24.15;;;10.00;99.90;;;;;;5095447;28;20504;-61
2021/12/13 05:12:38;;;;;;;35.95;23.38;;;10.00;99.90;;;;;;5095297;28;20051;-61
2021/12/13 05:15:10;;;;;;;33.60;23.15;;;10.00;99.90;;;;;;5095008;28;20407;-61
2021/12/13 05:17:43;;;;;;;33.15;23.08;;;10.00;99.90;;;;;;5076798;28;20081;-61
2021/12/13 05:20:22;;;;;;;36.28;23.50;;;10.00;99.90;;;;;;5095241;28;20036;-61
2021/12/13 05:22:53;;;;;;;34.65;23.00;;;10.00;99.90;;;;;;5095281;28;20452;-61
2021/12/13 05:25:36;;;;;;;31.80;20.77;;;10.00;99.90;;;;;;5095199;28;20027;-61
2021/12/13 05:28:20;;;;;;;32.90;22.92;;;10.00;99.90;;;;;;5095113;28;20028;-61
2021/12/13 05:30:48;;;;;;;31.92;21.80;;;10.00;99.90;;;;;;5078552;28;20137;-60
2021/12/13 05:33:18;;;;;;;36.65;23.15;;;10.00;99.90;;;;;;5094853;28;20032;-61
2021/12/13 05:36:13;;;;;;;;;;;;;;;;;;;;;
2021/12/13 05:38:43;;;;;;;34.15;22.00;;;10.00;99.90;;;;;;5094834;28;20395;-61
2021/12/13 05:41:12;;;;;;;33.58;23.00;;;10.00;99.90;;;;;;5094993;28;20024;-61
2021/12/13 05:43:51;;;;;;;32.63;22.07;;;10.00;99.90;;;;;;5094709;28;20054;-61
2021/12/13 05:46:23;;;;;;;30.35;21.30;;;10.00;99.90;;;;;;5094606;28;20250;-61
2021/12/13 05:48:56;;;;;;;34.42;21.33;;;10.00;99.90;;;;;;5094620;28;20078;-60
2021/12/13 05:51:33;;;;;;;31.45;21.77;;;10.00;99.90;;;;;;5094721;28;20027;-61
2021/12/13 05:54:27;;;;;;;31.92;21.73;;;10.00;99.90;;;;;;5092980;28;20115;-61
2021/12/13 05:57:09;;;;;;;30.33;21.02;;;9.90;99.90;;;;;;5074993;28;20444;-61
2021/12/13 05:59:52;;;;;;;32.15;21.27;;;9.90;99.90;;;;;;5089045;28;20024;-63
2021/12/13 06:02:34;;;;;;;29.90;19.90;;;9.90;99.90;;;;;;5073048;28;20034;-61
2021/12/13 06:05:06;;;;;;;29.70;20.70;;;9.90;99.90;;;;;;5073584;28;20070;-61
2021/12/13 06:07:39;;;;;;;29.73;20.42;;;9.90;99.90;;;;;;5084536;28;20028;-61
2021/12/13 06:10:13;;;;;;;31.83;20.83;;;10.00;99.90;;;;;;5094286;28;20024;-61
2021/12/13 06:12:47;;;;;;;30.23;21.48;;;9.90;99.90;;;;;;5094292;28;20032;-60
2021/12/13 06:15:15;;;;;;;29.38;20.50;;;9.90;99.90;;;;;;5093878;28;20066;-61
2021/12/13 06:17:45;;;;;;;33.15;19.98;;;9.90;99.90;;;;;;5094063;28;20541;-62
2021/12/13 06:20:19;;;;;;;28.73;20.13;;;9.90;99.90;;;;;;5094209;28;20058;-61
2021/12/13 06:22:45;;;;;;;35.50;21.45;;;9.90;99.90;;;;;;5093898;28;20032;-61
2021/12/13 06:25:18;;;;;;;30.10;20.67;;;9.90;99.90;;;;;;5093917;28;20035;-61
2021/12/13 06:27:54;;;;;;;29.90;20.17;;;9.90;99.90;;;;;;5075811;28;20028;-61
2021/12/13 06:30:25;;;;;;;31.02;21.00;;;9.90;99.90;;;;;;5093619;28;20128;-61
2021/12/13 06:33:09;;;;;;;32.05;21.77;;;9.90;99.90;;;;;;5093704;28;20459;-61
2021/12/13 06:35:56;;;;;;;32.83;19.33;;;9.90;99.90;;;;;;5091184;28;20034;-61
2021/12/13 06:38:35;;;;;;;30.05;20.40;;;9.90;99.90;;;;;;5093736;28;20016;-61
2021/12/13 06:41:03;;;;;;;32.13;20.63;;;9.90;99.90;;;;;;5093525;28;20016;-61
2021/12/13 06:43:38;;;;;;;32.88;20.02;;;9.90;99.90;;;;;;5093552;28;20020;-60
2021/12/13 06:46:23;;;;;;;26.55;18.67;;;9.90;99.90;;;;;;5093649;28;20081;-61
2021/12/13 06:49:09;;;;;;;27.02;18.75;;;9.90;99.90;;;;;;5093442;28;20027;-61
2021/12/13 06:51:39;;;;;;;30.90;18.67;;;9.80;99.90;;;;;;5072706;28;20032;-61
2021/12/13 06:54:21;;;;;;;28.63;19.25;;;9.80;99.90;;;;;;5073068;28;20036;-60
2021/12/13 06:57:46;;;;;;;26.92;18.80;;;9.80;99.90;;;;;;5073162;28;20023;-61
2021/12/13 07:00:47;;;;;;;30.85;18.48;;;9.80;99.90;;;;;;5009764;28;20161;-62
2021/12/13 07:03:27;;;;;;;27.20;18.05;;;9.80;99.90;;;;;;5054224;28;20559;-61
2021/12/13 07:05:57;;;;;;;;;;;9.80;99.90;;;;;;5091761;28;20490;-61
2021/12/13 07:08:35;;;;;;;24.50;17.05;;;9.80;99.90;;;;;;5091086;28;19904;-61
2021/12/13 07:11:08;;;;;;;26.90;17.00;;;9.70;99.90;;;;;;5075209;28;20480;-61
2021/12/13 07:13:39;;;;;;;27.70;19.42;;;9.70;99.90;;;;;;5092285;28;20036;-61
2021/12/13 07:16:14;;;;;;;28.42;18.15;;;9.80;99.90;;;;;;5074677;28;20044;-61
2021/12/13 07:19:07;;;;;;;26.42;17.15;;;9.80;99.90;;;;;;5093019;28;20031;-61
2021/12/13 07:21:43;;;;;;;32.80;18.55;;;9.80;99.90;;;;;;5093194;28;20020;-61
2021/12/13 07:24:12;;;;;;;27.08;18.52;;;9.80;99.90;;;;;;5074862;28;20080;-61
2021/12/13 07:29:57;;;;;;;23.88;17.15;;;9.80;99.90;;;;;;5093158;28;20090;-60
2021/12/13 07:32:58;;;;;;;28.52;17.50;;;9.70;99.90;;;;;;5092901;28;20019;-61
2021/12/13 07:35:36;;;;;;;26.33;17.13;;;9.70;99.90;;;;;;5092405;28;20390;-60
2021/12/13 07:38:07;;;;;;;26.20;16.17;;;9.70;99.90;;;;;;5092281;28;20494;-61
2021/12/13 07:40:51;;;;;;;25.40;17.17;;;9.70;99.90;;;;;;5082346;28;20024;-61
2021/12/13 07:43:23;;;;;;;24.70;16.45;;;9.70;99.90;;;;;;5091404;28;20058;-61
2021/12/13 07:46:06;;;;;;;24.77;16.55;;;9.80;99.90;;;;;;5088097;28;20013;-61
2021/12/13 07:48:39;;;;;;;22.50;15.52;;;9.70;99.90;;;;;;5088176;28;20399;-61
2021/12/13 07:51:13;;;;;;;20.27;15.02;;;9.70;99.90;;;;;;5084385;28;20247;-61
2021/12/13 07:53:55;;;;;;;23.85;15.07;;;9.80;99.90;;;;;;5069843;28;20028;-61
2021/12/13 07:56:39;;;;;;;22.10;15.38;;;9.80;99.90;;;;;;5085936;28;20369;-61
2021/12/13 07:59:11;;;;;;;21.95;14.93;;;9.80;99.90;;;;;;5085649;28;20008;-61
2021/12/13 08:01:48;;;;;;;25.20;15.60;;;9.70;99.90;;;;;;5085959;28;20021;-61
2021/12/13 08:04:26;;;;;;;23.75;14.80;;;9.70;99.90;;;;;;5090316;28;20031;-61
2021/12/13 08:06:57;;;;;;;20.98;15.25;;;9.80;99.90;;;;;;5090788;28;20063;-61
2021/12/13 08:09:27;;;;;;;22.58;14.73;;;9.70;99.90;;;;;;5087499;28;20055;-61
2021/12/13 08:11:57;;;;;;;22.85;15.27;;;9.80;99.90;;;;;;5087972;28;20019;-61
2021/12/13 08:14:43;;;;;;;20.50;14.13;;;9.70;99.90;;;;;;5064008;28;20024;-61
2021/12/13 08:17:20;;;;;;;21.77;14.77;;;9.80;99.90;;;;;;5089261;28;20039;-61
2021/12/13 08:19:57;;;;;;;22.15;15.52;;;9.80;99.90;;;;;;5085346;28;20055;-61
2021/12/13 08:22:28;;;;;;;24.83;15.15;;;9.70;99.90;;;;;;5084998;28;20491;-61
2021/12/13 08:24:59;;;;;;;20.98;13.38;;;9.70;99.90;;;;;;5089169;28;20028;-61
2021/12/13 08:27:29;;;;;;;24.52;14.13;;;9.70;99.90;;;;;;5091652;28;20024;-61
2021/12/13 08:30:12;;;;;;;20.67;14.70;;;9.70;99.90;;;;;;5089940;28;20032;-61
2021/12/13 08:33:01;;;;;;;20.35;14.68;;;9.70;99.90;;;;;;5088153;28;20038;-61
2021/12/13 08:35:54;;;;;;;22.42;13.90;;;9.70;99.90;;;;;;5084237;28;20016;-61
2021/12/13 08:38:38;;;;;;;22.63;14.82;;;9.70;99.90;;;;;;5093452;28;20030;-61
2021/12/13 08:41:16;;;;;;;21.20;14.68;;;9.60;99.90;;;;;;5086745;28;20059;-61
2021/12/13 08:43:54;;;;;;;24.48;16.15;;;9.60;99.90;;;;;;5075428;28;20137;-61
2021/12/13 08:46:34;;;;;;;23.77;15.55;;;9.60;99.90;;;;;;5090956;28;20484;-61
2021/12/13 08:49:00;;;;;;;25.65;15.50;;;9.60;99.90;;;;;;5093848;28;20032;-61
2021/12/13 08:51:29;;;;;;;21.77;14.85;;;9.60;99.90;;;;;;5092578;28;20024;-61
2021/12/13 08:54:06;;;;;;;20.38;15.00;;;9.60;99.90;;;;;;5086782;28;20029;-61
2021/12/13 08:56:40;;;;;;;21.70;14.52;;;9.60;99.90;;;;;;5083964;28;20549;-61
2021/12/13 08:59:45;;;;;;;22.35;15.02;;;9.60;99.90;;;;;;5092766;28;20020;-61
2021/12/13 09:02:11;;;;;;;22.73;13.60;;;9.70;99.90;;;;;;5089078;28;20012;-61
2021/12/13 09:04:42;;;;;;;19.85;14.20;;;9.60;99.90;;;;;;5069150;28;20533;-61
2021/12/13 09:07:13;;;;;;;21.25;15.18;;;9.70;99.90;;;;;;5091171;28;20022;-61
2021/12/13 09:09:46;;;;;;;20.05;14.65;;;9.60;99.90;;;;;;5090677;28;20024;-61
2021/12/13 09:12:15;;;;;;;22.33;14.98;;;9.70;99.90;;;;;;5090660;28;20038;-61
2021/12/13 09:14:50;;;;;;;20.52;14.07;;;9.70;99.90;;;;;;5092601;28;20482;-61
2021/12/13 09:17:31;;;;;;;20.05;13.88;;;9.70;99.90;;;;;;5086887;28;20024;-61
2021/12/13 09:20:11;;;;;;;23.00;13.77;;;9.70;99.90;;;;;;5090497;28;20041;-61
2021/12/13 09:22:41;;;;;;;19.20;14.15;;;9.70;99.90;;;;;;5090222;28;20020;-61
2021/12/13 09:25:31;;;;;;;22.20;14.50;;;9.70;99.90;;;;;;5092104;28;20026;-61
2021/12/13 09:28:01;;;;;;;19.98;13.80;;;9.70;99.90;;;;;;5092779;28;20167;-61
2021/12/13 09:30:42;;;;;;;19.20;13.68;;;9.60;99.90;;;;;;5090450;28;20111;-61
2021/12/13 09:33:18;;;;;;;23.95;15.88;;;9.70;99.90;;;;;;5072207;28;20126;-61
2021/12/13 09:35:46;;;;;;;18.70;13.82;;;9.70;99.90;;;;;;5092707;28;20058;-61
2021/12/13 09:38:23;;;;;;;18.75;13.68;;;9.70;99.90;;;;;;5091788;28;20020;-61
2021/12/13 09:40:58;;;;;;;19.00;13.35;;;9.70;99.90;;;;;;5091307;28;20069;-61
2021/12/13 09:43:45;;;;;;;19.80;13.73;;;9.70;99.90;;;;;;5063301;28;20536;-61
2021/12/13 09:46:15;;;;;;;18.50;12.95;;;9.70;99.90;;;;;;5084462;28;20009;-61
2021/12/13 09:48:50;;;;;;;18.65;13.00;;;9.70;99.90;;;;;;5086763;28;20016;-61
2021/12/13 09:51:44;;;;;;;17.00;11.98;;;9.70;99.90;;;;;;5089117;28;20033;-61
2021/12/13 09:54:12;;;;;;;16.92;12.02;;;9.70;99.90;;;;;;5088881;28;20050;-61
2021/12/13 09:56:49;;;;;;;18.85;11.45;;;9.70;99.90;;;;;;5091430;28;20019;-61
2021/12/13 09:59:29;;;;;;;17.17;12.93;;;9.70;99.90;;;;;;5086001;28;20028;-61
2021/12/13 10:01:58;;;;;;;15.63;12.48;;;9.70;99.90;;;;;;5091051;28;20050;-61
2021/12/13 10:04:34;;;;;;;18.33;12.45;;;9.80;99.90;;;;;;5092145;28;20240;-62
2021/12/13 10:07:19;;;;;;;17.27;12.18;;;9.80;99.90;;;;;;5073683;28;20486;-62
2021/12/13 10:09:50;;;;;;;17.23;11.90;;;9.80;99.90;;;;;;5088363;28;20055;-61
2021/12/13 10:12:44;;;;;;;16.13;11.68;;;9.80;99.90;;;;;;5092358;28;20111;-61
2021/12/13 10:15:18;;;;;;;18.27;12.32;;;9.80;99.90;;;;;;5081665;28;20466;-61
2021/12/13 10:17:49;;;;;;;17.42;11.68;;;9.80;99.90;;;;;;5088468;28;20492;-62
2021/12/13 10:20:32;;;;;;;17.58;12.18;;;9.80;99.90;;;;;;5090786;28;20487;-61
2021/12/13 10:22:58;;;;;;;16.95;11.35;;;9.80;99.90;;;;;;5091126;28;20383;-61
2021/12/13 10:25:29;;;;;;;15.82;11.90;;;9.80;99.90;;;;;;5073676;28;20502;-61
2021/12/13 10:31:19;;;;;;;14.15;10.60;;;9.90;99.90;;;;;;5084892;28;20024;-61
2021/12/13 10:33:46;;;;;;;15.07;10.65;;;9.80;99.90;;;;;;5091479;28;20032;-62
2021/12/13 10:36:13;;;;;;;14.30;10.93;;;9.80;99.90;;;;;;5083284;28;20103;-62
2021/12/13 10:38:43;;;;;;;15.05;11.45;;;9.90;99.90;;;;;;5086169;28;20111;-61
2021/12/13 10:41:18;;;;;;;18.67;11.93;;;9.90;99.90;;;;;;5089550;28;20016;-62
2021/12/13 10:43:51;;;;;;;13.85;10.30;;;9.90;99.90;;;;;;5091202;28;20623;-62
2021/12/13 10:46:23;;;;;;;14.27;10.50;;;9.90;99.90;;;;;;5087016;28;20028;-62
2021/12/13 10:48:56;;;;;;;16.23;11.55;;;9.80;99.90;;;;;;5086265;28;20046;-61
2021/12/13 10:51:25;;;;;;;15.90;11.07;;;9.90;99.90;;;;;;5091431;28;20013;-62
2021/12/13 10:53:52;;;;;;;17.83;11.20;;;9.90;99.90;;;;;;5091164;28;20016;-61
2021/12/13 10:56:29;;;;;;;13.50;10.35;;;9.90;99.90;;;;;;5091492;28;20038;-62
2021/12/13 10:58:59;;;;;;;13.40;10.30;;;9.90;99.90;;;;;;5085881;28;20028;-61
2021/12/13 11:01:36;;;;;;;13.32;9.90;;;9.90;99.90;;;;;;5091045;28;20028;-62
2021/12/13 11:04:06;;;;;;;16.90;10.77;;;9.90;99.90;;;;;;5084280;28;20046;-62
2021/12/13 11:06:35;;;;;;;12.55;9.85;;;9.90;99.90;;;;;;5083688;28;20052;-62
2021/12/13 11:09:04;;;;;;;12.50;9.37;;;9.90;99.90;;;;;;5090638;28;20032;-61
2021/12/13 11:11:41;;;;;;;12.17;8.70;;;9.90;99.90;;;;;;5088416;28;20016;-61
2021/12/13 11:14:09;;;;;;;13.75;9.93;;;9.90;99.90;;;;;;5085493;28;20729;-62
2021/12/13 11:16:44;;;;;;;11.82;9.00;;;9.90;99.90;;;;;;5088195;28;20399;-62
2021/12/13 11:19:13;;;;;;;13.60;9.50;;;9.90;99.90;;;;;;5091139;28;20106;-62
2021/12/13 11:21:43;;;;;;;14.32;9.63;;;9.90;99.90;;;;;;5085734;28;20020;-62
2021/12/13 11:24:12;;;;;;;12.52;9.18;;;9.90;99.90;;;;;;5088242;28;20103;-62
2021/12/13 11:26:40;;;;;;;;;;;9.90;99.90;;;;;;5068687;28;20028;-62
2021/12/13 11:29:07;;;;;;;15.77;8.77;;;9.90;99.90;;;;;;5085620;28;19912;-63
2021/12/13 11:31:33;;;;;;;12.38;8.70;;;9.90;99.90;;;;;;5068409;28;20031;-62
2021/12/13 11:33:59;;;;;;;11.10;8.52;;;9.90;99.90;;;;;;5090257;28;20020;-62
2021/12/13 11:36:55;;;;;;;11.68;8.50;;;9.90;99.90;;;;;;5086980;28;20107;-62
2021/12/13 11:39:58;;;;;;;11.63;8.60;;;10.00;99.90;;;;;;5068201;28;20085;-61
2021/12/13 11:43:03;;;;;;;10.88;8.43;;;10.00;99.90;;;;;;5083929;28;20012;-61
2021/12/13 11:46:05;;;;;;;12.25;8.75;;;10.00;99.90;;;;;;5081850;28;20036;-61
2021/12/13 11:49:08;;;;;;;11.18;8.45;;;9.90;99.90;;;;;;5066736;28;20028;-62
2021/12/13 11:51:54;;;;;;;10.25;7.60;;;10.00;99.90;;;;;;5084037;28;20103;-61
2021/12/13 11:54:58;;;;;;;9.82;7.57;;;10.00;99.90;;;;;;5069933;28;20328;-62
2021/12/13 11:57:48;;;;;;;11.93;8.30;;;10.10;99.90;;;;;;5084560;28;20492;-62
2021/12/13 12:00:32;;;;;;;14.20;7.93;;;10.10;99.90;;;;;;5086664;28;20135;-61
2021/12/13 12:03:46;;;;;;;10.15;7.78;;;10.10;99.90;;;;;;5095120;28;20061;-62
2021/12/13 12:06:49;;;;;;;10.75;7.95;;;10.10;99.90;;;;;;5094963;28;20388;-62
2021/12/13 12:09:30;;;;;;;9.73;7.38;;;10.10;99.90;;;;;;5074242;28;20499;-62
2021/12/13 12:12:11;;;;;;;11.23;7.35;;;10.10;99.90;;;;;;5087110;28;20492;-62
2021/12/13 12:14:36;;;;;;;10.20;6.88;;;10.10;99.90;;;;;;5094099;28;20027;-61
2021/12/13 12:17:06;;;;;;;10.90;7.43;;;10.10;99.90;;;;;;5094667;28;20012;-62
2021/12/13 12:19:40;;;;;;;9.65;6.80;;;10.10;99.90;;;;;;5092219;28;20016;-61
2021/12/13 12:22:10;;;;;;;7.28;5.88;;;10.20;99.90;;;;;;5094374;28;20028;-61
2021/12/13 12:24:40;;;;;;;8.07;6.18;;;10.20;99.90;;;;;;5093894;28;20016;-62
2021/12/13 12:27:14;;;;;;;8.55;7.10;;;10.20;99.90;;;;;;5091518;28;20395;-61
2021/12/13 12:29:44;;;;;;;9.27;6.45;;;10.20;99.90;;;;;;5094385;28;20383;-61
2021/12/13 12:32:26;;;;;;;9.07;6.45;;;10.20;99.90;;;;;;5094462;28;20448;-62
2021/12/13 12:35:02;;;;;;;9.32;6.70;;;10.30;99.90;;;;;;5091363;28;20056;-61
2021/12/13 12:37:54;;;;;;;7.28;5.97;;;10.20;99.90;;;;;;5073166;28;20022;-61
2021/12/13 12:40:33;;;;;;;6.88;5.88;;;10.30;99.90;;;;;;5089912;28;20024;-62
2021/12/13 12:43:01;;;;;;;8.02;6.47;;;10.30;99.90;;;;;;5092768;28;20019;-61
2021/12/13 12:45:35;;;;;;;9.77;6.15;;;10.30;99.90;;;;;;5089864;28;20464;-62
2021/12/13 12:48:06;;;;;;;10.55;7.50;;;10.30;99.90;;;;;;5090869;28;20065;-62
2021/12/13 12:50:43;;;;;;;9.75;6.13;;;10.30;99.90;;;;;;5094765;28;20020;-61
2021/12/13 12:53:33;;;;;;;9.35;6.80;;;10.30;99.90;;;;;;5095719;28;20494;-61
2021/12/13 12:56:07;;;;;;;10.25;6.53;;;10.30;99.90;;;;;;5080761;28;20050;-61
2021/12/13 12:58:56;;;;;;;9.52;6.03;;;10.30;99.90;;;;;;5077203;28;20024;-61
2021/12/13 13:01:27;;;;;;;8.30;6.57;;;10.30;99.90;;;;;;5094777;28;20101;-61
2021/12/13 13:04:06;;;;;;;9.05;6.47;;;10.30;99.90;;;;;;5095434;28;20139;-61
2021/12/13 13:06:32;;;;;;;9.23;6.10;;;10.40;99.90;;;;;;5094829;28;20024;-61
2021/12/13 13:08:57;;;;;;;8.52;5.72;;;10.40;99.90;;;;;;5094794;28;20066;-62
2021/12/13 13:11:30;;;;;;;8.73;6.55;;;10.40;99.90;;;;;;5094806;28;20032;-62
2021/12/13 13:14:16;;;;;;;7.05;5.30;;;10.40;99.90;;;;;;5094173;28;20428;-61
2021/12/13 13:16:48;;;;;;;9.38;6.10;;;10.40;99.90;;;;;;5093351;28;20062;-61
2021/12/13 13:19:36;;;;;;;8.48;5.75;;;10.40;99.90;;;;;;5087364;28;20040;-61
2021/12/13 13:22:10;;;;;;;8.27;5.50;;;10.40;99.90;;;;;;5087935;28;20480;-61
2021/12/13 13:24:45;;;;;;;8.43;5.50;;;10.30;99.90;;;;;;5090019;28;20020;-61
2021/12/13 13:27:11;;;;;;;6.72;5.13;;;10.30;99.90;;;;;;5090235;28;20110;-61
2021/12/13 13:29:38;;;;;;;8.32;5.55;;;10.30;99.90;;;;;;5076836;28;20026;-62
2021/12/13 13:32:09;;;;;;;9.50;5.97;;;10.30;99.90;;;;;;5095016;28;20485;-61
2021/12/13 13:34:39;;;;;;;6.95;5.15;;;10.30;99.90;;;;;;5090853;28;20036;-61
2021/12/13 13:37:04;;;;;;;;;;;10.30;99.90;;;;;;5094431;28;20070;-61